Leslie, MI

6:28 AM EDT on September 03, 2015 (GMT -0400)
PL-MI | | Change Station
CLOSE
Current Station
Personal Weather Station
Location: Pleasant Lake, MI
Elevation: 968 ft
Nearby Weather Stations

Elev 968 ft 42.38 °N, 84.36 °W | Updated 3 minutes ago

Mostly Cloudy
Mostly Cloudy
66.7 °F
Feels Like 66.7 °F
N
0.0
Wind Variable Wind from SSW

Today
High -- | Low -- °F
--% Chance of Precip.
Yesterday
High -- | Low -- °F
Precip. -- in
7:04 AM 8:08 PM
Waning Gibbous, 71% visible
Pressure 29.98 in
Visibility 1.0 miles
Clouds
Dew Point 66 °F
Humidity 99%
Rainfall 0.00 in
Snow Depth Not available.
UV Not available.
Pollen 10.10 out of 12
Air Quality Not available.
Flu Activity Not available.
METAR KTEW 031014Z AUTO 00000KT 1SM BR VV007 20/18 A2998 RMK AO2 T01960182
Pressure 29.98 in
Visibility 1.0 miles
Clouds
Dew Point 66 °F
Humidity 99%
Rainfall 0.00 in
Snow Depth Not available.
UV Not available.
Pollen 10.10 out of 12
Air Quality Not available.
Flu Activity Not available.
METAR KTEW 031014Z AUTO 00000KT 1SM BR VV007 20/18 A2998 RMK AO2 T01960182

10-Day Weather Forecast

×

Almanac

Astronomy

Sep. 03, 2015 Rise Set
Actual Time
Civil Twilight
Nautical Twilight
Astronomical Twilight
Moon
Length of Visible Light
Length of Day
Tomorrow will be .
, % of the Moon is Illuminated

Today's Extremes

State Highs State Lows

Community

WunderPhotos

Upload Photos

1,851,929 photos uploaded!

WunderBlogs® & News

Nearby

Air Quality

  Air Quality AQ Index Pollutant
Not available.

Snow Depth

Station Depth Elevation

Earthquake Activity

City Distance Mag. Time & Date
Minimum magnitude displayed is 2.5.

Coastal Water Temperatures

Place Temperature

Stations

Nearby Weather Stations

Station Location Temp. Windchill Dew Point Humidity Wind Precip. Elev Updated Type